Terminal Aerodrome Forecast
Issued by NWS Lake Charles, LA

Home | Current Version | Previous Version | Text Only | Print | Product List | Glossary On
Versions: 1 2 3 4 5 6 7 8 9 10 11 12 13 14 15 16
291
FTUS44 KLCH 220542 AAB
TAFARA
TAF AMD
KARA 220542Z 2206/2306 VRB05KT P6SM VCTS SCT008CB BKN015
      TEMPO 2206/2208 2SM TSRA BKN008CB
     FM221400 18006KT P6SM VCTS BKN025CB
     FM221800 20008KT P6SM VCTS BKN035CB
      TEMPO 2218/2222 2SM TSRA BKN015CB
     FM230200 32009KT P6SM BKN100=

USA.gov is the U.S. government's official web portal to all federal, state and local government web resources and services.